sensor_id;sensor_type;location;lat;lon;timestamp;temperature;humidity
35531;DHT22;21637;53.352;-6.356;2023-04-29T00:01:29;10.40;99.90
35531;DHT22;21637;53.352;-6.356;2023-04-29T00:03:55;10.30;99.90
35531;DHT22;21637;53.352;-6.356;2023-04-29T00:06:21;10.20;99.90
35531;DHT22;21637;53.352;-6.356;2023-04-29T00:08:47;10.20;99.90
35531;DHT22;21637;53.352;-6.356;2023-04-29T00:11:13;10.20;99.90
35531;DHT22;21637;53.352;-6.356;2023-04-29T00:13:39;10.20;99.90
35531;DHT22;21637;53.352;-6.356;2023-04-29T00:16:06;10.10;99.90
35531;DHT22;21637;53.352;-6.356;2023-04-29T00:18:32;10.10;99.90
35531;DHT22;21637;53.352;-6.356;2023-04-29T00:20:58;10.00;99.90
35531;DHT22;21637;53.352;-6.356;2023-04-29T00:23:24;10.00;99.90
35531;DHT22;21637;53.352;-6.356;2023-04-29T00:25:49;10.00;99.90
35531;DHT22;21637;53.352;-6.356;2023-04-29T00:28:17;10.00;99.90
35531;DHT22;21637;53.352;-6.356;2023-04-29T00:30:43;10.00;99.90
35531;DHT22;21637;53.352;-6.356;2023-04-29T00:33:09;10.10;99.90
35531;DHT22;21637;53.352;-6.356;2023-04-29T00:35:35;10.00;99.90
35531;DHT22;21637;53.352;-6.356;2023-04-29T00:38:00;10.10;99.90
35531;DHT22;21637;53.352;-6.356;2023-04-29T00:40:27;10.00;99.90
35531;DHT22;21637;53.352;-6.356;2023-04-29T00:42:53;10.10;99.90
35531;DHT22;21637;53.352;-6.356;2023-04-29T00:45:19;10.10;99.90
35531;DHT22;21637;53.352;-6.356;2023-04-29T00:47:44;10.00;99.90
35531;DHT22;21637;53.352;-6.356;2023-04-29T00:50:10;10.00;99.90
35531;DHT22;21637;53.352;-6.356;2023-04-29T00:52:37;10.00;99.90
35531;DHT22;21637;53.352;-6.356;2023-04-29T00:55:07;10.00;99.90
35531;DHT22;21637;53.352;-6.356;2023-04-29T00:57:33;10.00;99.90
35531;DHT22;21637;53.352;-6.356;2023-04-29T00:59:59;9.90;99.90
35531;DHT22;21637;53.352;-6.356;2023-04-29T01:02:25;9.90;99.90
35531;DHT22;21637;53.352;-6.356;2023-04-29T01:04:51;9.80;99.90
35531;DHT22;21637;53.352;-6.356;2023-04-29T01:10:03;9.70;99.90
35531;DHT22;21637;53.352;-6.356;2023-04-29T01:12:37;9.70;99.90
35531;DHT22;21637;53.352;-6.356;2023-04-29T01:17:54;9.60;99.90
35531;DHT22;21637;53.352;-6.356;2023-04-29T01:20:21;9.60;99.90
35531;DHT22;21637;53.352;-6.356;2023-04-29T01:22:47;9.60;99.90
35531;DHT22;21637;53.352;-6.356;2023-04-29T01:25:13;9.60;99.90
35531;DHT22;21637;53.352;-6.356;2023-04-29T01:28:02;9.50;99.90
35531;DHT22;21637;53.352;-6.356;2023-04-29T01:30:49;9.50;99.90
35531;DHT22;21637;53.352;-6.356;2023-04-29T01:38:46;9.30;99.90
35531;DHT22;21637;53.352;-6.356;2023-04-29T01:41:34;9.30;99.90
35531;DHT22;21637;53.352;-6.356;2023-04-29T01:44:01;9.30;99.90
35531;DHT22;21637;53.352;-6.356;2023-04-29T01:46:29;9.20;99.90
35531;DHT22;21637;53.352;-6.356;2023-04-29T01:48:55;9.10;99.90
35531;DHT22;21637;53.352;-6.356;2023-04-29T01:51:21;9.10;99.90
35531;DHT22;21637;53.352;-6.356;2023-04-29T01:53:47;9.10;99.90
35531;DHT22;21637;53.352;-6.356;2023-04-29T01:56:12;9.10;99.90
35531;DHT22;21637;53.352;-6.356;2023-04-29T01:58:38;9.10;99.90
35531;DHT22;21637;53.352;-6.356;2023-04-29T02:01:04;9.10;99.90
35531;DHT22;21637;53.352;-6.356;2023-04-29T02:03:31;9.00;99.90
35531;DHT22;21637;53.352;-6.356;2023-04-29T02:05:57;9.00;99.90
35531;DHT22;21637;53.352;-6.356;2023-04-29T02:08:23;9.00;99.90
35531;DHT22;21637;53.352;-6.356;2023-04-29T02:10:56;9.00;99.90
35531;DHT22;21637;53.352;-6.356;2023-04-29T02:13:22;9.00;99.90
35531;DHT22;21637;53.352;-6.356;2023-04-29T02:15:48;9.00;99.90
35531;DHT22;21637;53.352;-6.356;2023-04-29T02:18:14;9.00;99.90
35531;DHT22;21637;53.352;-6.356;2023-04-29T02:20:40;9.00;99.90
35531;DHT22;21637;53.352;-6.356;2023-04-29T02:23:06;9.10;99.90
35531;DHT22;21637;53.352;-6.356;2023-04-29T02:25:32;9.10;99.90
35531;DHT22;21637;53.352;-6.356;2023-04-29T02:27:58;9.10;99.90
35531;DHT22;21637;53.352;-6.356;2023-04-29T02:30:23;9.00;99.90
35531;DHT22;21637;53.352;-6.356;2023-04-29T02:32:49;9.00;99.90
35531;DHT22;21637;53.352;-6.356;2023-04-29T02:35:15;8.90;99.90
35531;DHT22;21637;53.352;-6.356;2023-04-29T02:37:41;8.80;99.90
35531;DHT22;21637;53.352;-6.356;2023-04-29T02:40:07;8.70;99.90
35531;DHT22;21637;53.352;-6.356;2023-04-29T02:42:33;8.70;99.90
35531;DHT22;21637;53.352;-6.356;2023-04-29T02:44:59;8.70;99.90
35531;DHT22;21637;53.352;-6.356;2023-04-29T02:47:25;8.70;99.90
35531;DHT22;21637;53.352;-6.356;2023-04-29T02:49:51;8.80;99.90
35531;DHT22;21637;53.352;-6.356;2023-04-29T02:52:16;8.80;99.90
35531;DHT22;21637;53.352;-6.356;2023-04-29T02:54:43;8.80;99.90
35531;DHT22;21637;53.352;-6.356;2023-04-29T02:57:09;8.80;99.90
35531;DHT22;21637;53.352;-6.356;2023-04-29T02:59:35;8.90;99.90
35531;DHT22;21637;53.352;-6.356;2023-04-29T03:02:01;9.00;99.90
35531;DHT22;21637;53.352;-6.356;2023-04-29T03:04:27;9.00;99.90
35531;DHT22;21637;53.352;-6.356;2023-04-29T03:06:56;9.00;99.90
35531;DHT22;21637;53.352;-6.356;2023-04-29T03:09:22;9.00;99.90
35531;DHT22;21637;53.352;-6.356;2023-04-29T03:11:49;9.00;99.90
35531;DHT22;21637;53.352;-6.356;2023-04-29T03:14:14;8.90;99.90
35531;DHT22;21637;53.352;-6.356;2023-04-29T03:16:40;8.90;99.90
35531;DHT22;21637;53.352;-6.356;2023-04-29T03:19:07;8.90;99.90
35531;DHT22;21637;53.352;-6.356;2023-04-29T03:21:32;8.90;99.90
35531;DHT22;21637;53.352;-6.356;2023-04-29T03:23:58;8.90;99.90
35531;DHT22;21637;53.352;-6.356;2023-04-29T03:26:24;8.90;99.90
35531;DHT22;21637;53.352;-6.356;2023-04-29T03:28:50;8.90;99.90
35531;DHT22;21637;53.352;-6.356;2023-04-29T03:31:16;9.00;99.90
35531;DHT22;21637;53.352;-6.356;2023-04-29T03:33:42;9.00;99.90
35531;DHT22;21637;53.352;-6.356;2023-04-29T03:36:08;9.10;99.90
35531;DHT22;21637;53.352;-6.356;2023-04-29T03:38:34;9.20;99.90
35531;DHT22;21637;53.352;-6.356;2023-04-29T03:41:00;9.20;99.90
35531;DHT22;21637;53.352;-6.356;2023-04-29T03:43:26;9.20;99.90
35531;DHT22;21637;53.352;-6.356;2023-04-29T03:45:52;9.30;99.90
35531;DHT22;21637;53.352;-6.356;2023-04-29T03:48:18;9.40;99.90
35531;DHT22;21637;53.352;-6.356;2023-04-29T03:50:44;9.50;99.90
35531;DHT22;21637;53.352;-6.356;2023-04-29T03:53:11;9.50;99.90
35531;DHT22;21637;53.352;-6.356;2023-04-29T03:55:37;9.50;99.90
35531;DHT22;21637;53.352;-6.356;2023-04-29T03:58:03;9.50;99.90
35531;DHT22;21637;53.352;-6.356;2023-04-29T04:00:30;9.50;99.90
35531;DHT22;21637;53.352;-6.356;2023-04-29T04:02:59;9.50;99.90
35531;DHT22;21637;53.352;-6.356;2023-04-29T04:05:25;9.60;99.90
35531;DHT22;21637;53.352;-6.356;2023-04-29T04:07:53;9.60;99.90
35531;DHT22;21637;53.352;-6.356;2023-04-29T04:10:19;9.60;99.90
35531;DHT22;21637;53.352;-6.356;2023-04-29T04:12:45;9.60;99.90
35531;DHT22;21637;53.352;-6.356;2023-04-29T04:15:12;9.60;99.90
35531;DHT22;21637;53.352;-6.356;2023-04-29T04:17:38;9.60;99.90
35531;DHT22;21637;53.352;-6.356;2023-04-29T04:20:04;9.60;99.90
35531;DHT22;21637;53.352;-6.356;2023-04-29T04:22:30;9.60;99.90
35531;DHT22;21637;53.352;-6.356;2023-04-29T04:24:56;9.60;99.90
35531;DHT22;21637;53.352;-6.356;2023-04-29T04:27:21;9.60;99.90
35531;DHT22;21637;53.352;-6.356;2023-04-29T04:29:47;9.60;99.90
35531;DHT22;21637;53.352;-6.356;2023-04-29T04:32:13;9.60;99.90
35531;DHT22;21637;53.352;-6.356;2023-04-29T04:34:39;9.70;99.90
35531;DHT22;21637;53.352;-6.356;2023-04-29T04:37:05;9.80;99.90
35531;DHT22;21637;53.352;-6.356;2023-04-29T04:39:31;9.80;99.90
35531;DHT22;21637;53.352;-6.356;2023-04-29T04:41:57;9.80;99.90
35531;DHT22;21637;53.352;-6.356;2023-04-29T04:44:22;9.80;99.90
35531;DHT22;21637;53.352;-6.356;2023-04-29T04:46:50;9.80;99.90
35531;DHT22;21637;53.352;-6.356;2023-04-29T04:49:16;9.80;99.90
35531;DHT22;21637;53.352;-6.356;2023-04-29T04:51:45;9.80;99.90
35531;DHT22;21637;53.352;-6.356;2023-04-29T04:54:11;9.80;99.90
35531;DHT22;21637;53.352;-6.356;2023-04-29T04:56:36;9.80;99.90
35531;DHT22;21637;53.352;-6.356;2023-04-29T04:59:03;9.80;99.90
35531;DHT22;21637;53.352;-6.356;2023-04-29T05:01:29;9.90;99.90
35531;DHT22;21637;53.352;-6.356;2023-04-29T05:03:54;9.90;99.90
35531;DHT22;21637;53.352;-6.356;2023-04-29T05:06:20;9.90;99.90
35531;DHT22;21637;53.352;-6.356;2023-04-29T05:08:46;9.90;99.90
35531;DHT22;21637;53.352;-6.356;2023-04-29T05:11:18;9.90;99.90
35531;DHT22;21637;53.352;-6.356;2023-04-29T05:13:44;9.90;99.90
35531;DHT22;21637;53.352;-6.356;2023-04-29T05:16:10;9.90;99.90
35531;DHT22;21637;53.352;-6.356;2023-04-29T05:18:36;10.00;99.90
35531;DHT22;21637;53.352;-6.356;2023-04-29T05:21:02;10.00;99.90
35531;DHT22;21637;53.352;-6.356;2023-04-29T05:23:28;10.10;99.90
35531;DHT22;21637;53.352;-6.356;2023-04-29T05:25:54;10.20;99.90
35531;DHT22;21637;53.352;-6.356;2023-04-29T05:28:20;10.20;99.90
35531;DHT22;21637;53.352;-6.356;2023-04-29T05:30:46;10.30;99.90
35531;DHT22;21637;53.352;-6.356;2023-04-29T05:33:14;10.30;99.90
35531;DHT22;21637;53.352;-6.356;2023-04-29T05:35:40;10.40;99.90
35531;DHT22;21637;53.352;-6.356;2023-04-29T05:38:06;10.40;99.90
35531;DHT22;21637;53.352;-6.356;2023-04-29T05:40:32;10.40;99.90
35531;DHT22;21637;53.352;-6.356;2023-04-29T05:42:57;10.50;99.90
35531;DHT22;21637;53.352;-6.356;2023-04-29T05:45:24;10.50;99.90
35531;DHT22;21637;53.352;-6.356;2023-04-29T05:47:50;10.50;99.90
35531;DHT22;21637;53.352;-6.356;2023-04-29T05:50:16;10.60;99.90
35531;DHT22;21637;53.352;-6.356;2023-04-29T05:52:41;10.60;99.90
35531;DHT22;21637;53.352;-6.356;2023-04-29T05:55:07;10.70;99.90
35531;DHT22;21637;53.352;-6.356;2023-04-29T05:57:33;10.70;99.90
35531;DHT22;21637;53.352;-6.356;2023-04-29T05:59:59;10.70;99.90
35531;DHT22;21637;53.352;-6.356;2023-04-29T06:02:26;10.70;99.90
35531;DHT22;21637;53.352;-6.356;2023-04-29T06:04:51;10.70;99.90
35531;DHT22;21637;53.352;-6.356;2023-04-29T06:07:17;10.70;99.90
35531;DHT22;21637;53.352;-6.356;2023-04-29T06:09:43;10.70;99.90
35531;DHT22;21637;53.352;-6.356;2023-04-29T06:12:09;10.80;99.90
35531;DHT22;21637;53.352;-6.356;2023-04-29T06:14:35;10.90;99.90
35531;DHT22;21637;53.352;-6.356;2023-04-29T06:17:01;10.90;99.90
35531;DHT22;21637;53.352;-6.356;2023-04-29T06:19:28;11.00;99.90
35531;DHT22;21637;53.352;-6.356;2023-04-29T06:21:54;11.00;99.90
35531;DHT22;21637;53.352;-6.356;2023-04-29T06:24:20;11.00;99.90
35531;DHT22;21637;53.352;-6.356;2023-04-29T06:26:45;11.10;99.90
35531;DHT22;21637;53.352;-6.356;2023-04-29T06:29:11;11.10;99.90
35531;DHT22;21637;53.352;-6.356;2023-04-29T06:31:37;11.20;99.90
35531;DHT22;21637;53.352;-6.356;2023-04-29T06:34:03;11.30;99.90
35531;DHT22;21637;53.352;-6.356;2023-04-29T06:36:28;11.30;99.90
35531;DHT22;21637;53.352;-6.356;2023-04-29T06:38:54;11.30;99.90
35531;DHT22;21637;53.352;-6.356;2023-04-29T06:41:20;11.40;99.90
35531;DHT22;21637;53.352;-6.356;2023-04-29T06:43:46;11.50;99.90
35531;DHT22;21637;53.352;-6.356;2023-04-29T06:46:11;11.60;99.90
35531;DHT22;21637;53.352;-6.356;2023-04-29T06:48:37;11.60;99.90
35531;DHT22;21637;53.352;-6.356;2023-04-29T06:51:03;11.70;99.90
35531;DHT22;21637;53.352;-6.356;2023-04-29T06:53:29;11.80;99.90
35531;DHT22;21637;53.352;-6.356;2023-04-29T06:55:55;11.90;99.90
35531;DHT22;21637;53.352;-6.356;2023-04-29T06:58:20;11.90;99.90
35531;DHT22;21637;53.352;-6.356;2023-04-29T07:00:48;12.00;99.90
35531;DHT22;21637;53.352;-6.356;2023-04-29T07:03:14;12.10;99.90
35531;DHT22;21637;53.352;-6.356;2023-04-29T07:05:40;12.20;99.90
35531;DHT22;21637;53.352;-6.356;2023-04-29T07:08:11;12.30;99.90
35531;DHT22;21637;53.352;-6.356;2023-04-29T07:10:38;12.40;99.90
35531;DHT22;21637;53.352;-6.356;2023-04-29T07:13:04;12.40;99.90
35531;DHT22;21637;53.352;-6.356;2023-04-29T07:15:33;12.50;99.90
35531;DHT22;21637;53.352;-6.356;2023-04-29T07:17:59;12.50;99.90
35531;DHT22;21637;53.352;-6.356;2023-04-29T07:20:25;12.60;99.90
35531;DHT22;21637;53.352;-6.356;2023-04-29T07:22:52;12.70;99.90
35531;DHT22;21637;53.352;-6.356;2023-04-29T07:25:17;12.70;99.90
35531;DHT22;21637;53.352;-6.356;2023-04-29T07:27:43;12.80;99.90
35531;DHT22;21637;53.352;-6.356;2023-04-29T07:30:09;12.80;99.90
35531;DHT22;21637;53.352;-6.356;2023-04-29T07:32:35;12.80;99.90
35531;DHT22;21637;53.352;-6.356;2023-04-29T07:35:02;12.80;99.90
35531;DHT22;21637;53.352;-6.356;2023-04-29T07:37:27;12.80;99.90
35531;DHT22;21637;53.352;-6.356;2023-04-29T07:39:53;12.90;99.90
35531;DHT22;21637;53.352;-6.356;2023-04-29T07:42:19;12.90;99.90
35531;DHT22;21637;53.352;-6.356;2023-04-29T07:44:45;13.00;99.90
35531;DHT22;21637;53.352;-6.356;2023-04-29T07:47:11;13.00;99.90
35531;DHT22;21637;53.352;-6.356;2023-04-29T07:49:37;13.10;99.90
35531;DHT22;21637;53.352;-6.356;2023-04-29T07:52:06;13.20;99.90
35531;DHT22;21637;53.352;-6.356;2023-04-29T07:54:35;13.20;99.90
35531;DHT22;21637;53.352;-6.356;2023-04-29T07:57:02;13.30;99.90
35531;DHT22;21637;53.352;-6.356;2023-04-29T07:59:30;13.40;99.90
35531;DHT22;21637;53.352;-6.356;2023-04-29T08:01:55;13.40;99.90
35531;DHT22;21637;53.352;-6.356;2023-04-29T08:04:21;13.50;99.90
35531;DHT22;21637;53.352;-6.356;2023-04-29T08:06:47;13.60;99.90
35531;DHT22;21637;53.352;-6.356;2023-04-29T08:09:14;13.70;99.90
35531;DHT22;21637;53.352;-6.356;2023-04-29T08:11:40;13.70;99.90
35531;DHT22;21637;53.352;-6.356;2023-04-29T08:14:06;13.80;99.90
35531;DHT22;21637;53.352;-6.356;2023-04-29T08:16:32;13.80;99.90
35531;DHT22;21637;53.352;-6.356;2023-04-29T08:18:57;13.90;99.90
35531;DHT22;21637;53.352;-6.356;2023-04-29T08:21:23;14.00;99.90
35531;DHT22;21637;53.352;-6.356;2023-04-29T08:23:49;14.00;99.90
35531;DHT22;21637;53.352;-6.356;2023-04-29T08:26:15;14.00;99.90
35531;DHT22;21637;53.352;-6.356;2023-04-29T08:28:40;14.00;99.90
35531;DHT22;21637;53.352;-6.356;2023-04-29T08:31:06;14.00;99.90
35531;DHT22;21637;53.352;-6.356;2023-04-29T08:33:35;14.10;99.90
35531;DHT22;21637;53.352;-6.356;2023-04-29T08:36:02;14.10;99.90
35531;DHT22;21637;53.352;-6.356;2023-04-29T08:38:28;14.10;99.90
35531;DHT22;21637;53.352;-6.356;2023-04-29T08:40:54;14.10;99.90
35531;DHT22;21637;53.352;-6.356;2023-04-29T08:43:21;14.20;99.90
35531;DHT22;21637;53.352;-6.356;2023-04-29T08:45:49;14.20;99.90
35531;DHT22;21637;53.352;-6.356;2023-04-29T08:48:16;14.20;99.90
35531;DHT22;21637;53.352;-6.356;2023-04-29T08:50:42;14.20;99.90
35531;DHT22;21637;53.352;-6.356;2023-04-29T08:53:12;14.20;99.90
35531;DHT22;21637;53.352;-6.356;2023-04-29T08:55:45;14.30;99.90
35531;DHT22;21637;53.352;-6.356;2023-04-29T08:58:12;14.30;99.90
35531;DHT22;21637;53.352;-6.356;2023-04-29T09:00:39;14.40;99.90
35531;DHT22;21637;53.352;-6.356;2023-04-29T09:03:29;14.60;99.90
35531;DHT22;21637;53.352;-6.356;2023-04-29T09:05:59;14.70;99.90
35531;DHT22;21637;53.352;-6.356;2023-04-29T09:08:25;14.80;99.90
35531;DHT22;21637;53.352;-6.356;2023-04-29T09:10:51;15.00;99.90
35531;DHT22;21637;53.352;-6.356;2023-04-29T09:13:31;15.10;99.90
35531;DHT22;21637;53.352;-6.356;2023-04-29T09:15:57;15.30;99.90
35531;DHT22;21637;53.352;-6.356;2023-04-29T09:18:42;15.30;99.90
35531;DHT22;21637;53.352;-6.356;2023-04-29T09:21:27;15.40;99.90
35531;DHT22;21637;53.352;-6.356;2023-04-29T09:23:55;15.50;99.90
35531;DHT22;21637;53.352;-6.356;2023-04-29T09:26:22;15.40;99.90
35531;DHT22;21637;53.352;-6.356;2023-04-29T09:29:11;15.60;99.90
35531;DHT22;21637;53.352;-6.356;2023-04-29T09:31:38;15.50;99.90
35531;DHT22;21637;53.352;-6.356;2023-04-29T09:34:04;15.50;99.90
35531;DHT22;21637;53.352;-6.356;2023-04-29T09:39:11;15.60;99.90
35531;DHT22;21637;53.352;-6.356;2023-04-29T09:44:20;15.90;99.90
35531;DHT22;21637;53.352;-6.356;2023-04-29T09:47:08;16.10;99.90
35531;DHT22;21637;53.352;-6.356;2023-04-29T09:49:40;16.20;99.90
35531;DHT22;21637;53.352;-6.356;2023-04-29T09:52:08;16.20;99.90
35531;DHT22;21637;53.352;-6.356;2023-04-29T09:54:35;16.30;99.90
35531;DHT22;21637;53.352;-6.356;2023-04-29T09:57:02;16.30;99.90
35531;DHT22;21637;53.352;-6.356;2023-04-29T09:59:32;16.40;99.90
35531;DHT22;21637;53.352;-6.356;2023-04-29T10:02:01;16.30;99.90
35531;DHT22;21637;53.352;-6.356;2023-04-29T10:04:31;16.30;99.90
35531;DHT22;21637;53.352;-6.356;2023-04-29T10:06:58;16.50;99.90
35531;DHT22;21637;53.352;-6.356;2023-04-29T10:09:25;16.50;99.90
35531;DHT22;21637;53.352;-6.356;2023-04-29T10:11:52;16.70;99.90
35531;DHT22;21637;53.352;-6.356;2023-04-29T10:14:23;16.90;99.90
35531;DHT22;21637;53.352;-6.356;2023-04-29T10:16:58;17.20;99.90
35531;DHT22;21637;53.352;-6.356;2023-04-29T10:19:40;17.40;99.90
35531;DHT22;21637;53.352;-6.356;2023-04-29T10:22:16;17.40;99.90
35531;DHT22;21637;53.352;-6.356;2023-04-29T10:24:44;17.50;99.90
35531;DHT22;21637;53.352;-6.356;2023-04-29T10:27:12;17.30;99.90
35531;DHT22;21637;53.352;-6.356;2023-04-29T10:29:39;17.30;99.90
35531;DHT22;21637;53.352;-6.356;2023-04-29T10:32:08;17.30;99.90
35531;DHT22;21637;53.352;-6.356;2023-04-29T10:34:36;17.20;99.90
35531;DHT22;21637;53.352;-6.356;2023-04-29T10:37:05;17.30;99.90
35531;DHT22;21637;53.352;-6.356;2023-04-29T10:39:47;17.30;99.90
35531;DHT22;21637;53.352;-6.356;2023-04-29T10:42:30;17.20;99.90
35531;DHT22;21637;53.352;-6.356;2023-04-29T10:48:18;17.30;99.90
35531;DHT22;21637;53.352;-6.356;2023-04-29T10:53:15;17.50;99.90
35531;DHT22;21637;53.352;-6.356;2023-04-29T10:55:42;17.70;99.90
35531;DHT22;21637;53.352;-6.356;2023-04-29T11:01:01;17.50;99.90
35531;DHT22;21637;53.352;-6.356;2023-04-29T11:03:55;17.50;99.90
35531;DHT22;21637;53.352;-6.356;2023-04-29T11:06:46;17.40;99.90
35531;DHT22;21637;53.352;-6.356;2023-04-29T11:12:01;16.70;99.90
35531;DHT22;21637;53.352;-6.356;2023-04-29T11:14:41;16.40;99.90
35531;DHT22;21637;53.352;-6.356;2023-04-29T11:17:12;16.30;99.90
35531;DHT22;21637;53.352;-6.356;2023-04-29T11:19:41;16.20;99.90
35531;DHT22;21637;53.352;-6.356;2023-04-29T11:25:04;16.20;99.90
35531;DHT22;21637;53.352;-6.356;2023-04-29T11:27:36;16.10;99.90
35531;DHT22;21637;53.352;-6.356;2023-04-29T11:30:04;15.80;99.90
35531;DHT22;21637;53.352;-6.356;2023-04-29T11:32:41;15.70;99.90
35531;DHT22;21637;53.352;-6.356;2023-04-29T11:37:34;15.80;99.90
35531;DHT22;21637;53.352;-6.356;2023-04-29T11:40:00;15.70;99.90
35531;DHT22;21637;53.352;-6.356;2023-04-29T11:42:26;15.90;99.90
35531;DHT22;21637;53.352;-6.356;2023-04-29T11:44:56;15.90;99.90
35531;DHT22;21637;53.352;-6.356;2023-04-29T11:47:26;16.00;99.90
35531;DHT22;21637;53.352;-6.356;2023-04-29T11:49:52;16.30;99.90
35531;DHT22;21637;53.352;-6.356;2023-04-29T11:52:19;16.30;99.90
35531;DHT22;21637;53.352;-6.356;2023-04-29T11:54:46;16.40;99.90
35531;DHT22;21637;53.352;-6.356;2023-04-29T11:57:12;16.40;99.90
35531;DHT22;21637;53.352;-6.356;2023-04-29T11:59:41;16.50;99.90
35531;DHT22;21637;53.352;-6.356;2023-04-29T12:02:11;16.30;99.90
35531;DHT22;21637;53.352;-6.356;2023-04-29T12:04:47;16.30;99.90
35531;DHT22;21637;53.352;-6.356;2023-04-29T12:07:16;16.30;99.90
35531;DHT22;21637;53.352;-6.356;2023-04-29T12:09:45;16.40;99.90
35531;DHT22;21637;53.352;-6.356;2023-04-29T12:12:13;16.50;99.90
35531;DHT22;21637;53.352;-6.356;2023-04-29T12:14:39;16.50;99.90
35531;DHT22;21637;53.352;-6.356;2023-04-29T12:17:07;16.60;99.90
35531;DHT22;21637;53.352;-6.356;2023-04-29T12:19:34;16.60;99.90
35531;DHT22;21637;53.352;-6.356;2023-04-29T12:22:03;16.60;99.90
35531;DHT22;21637;53.352;-6.356;2023-04-29T12:24:35;16.60;99.90
35531;DHT22;21637;53.352;-6.356;2023-04-29T12:27:02;16.70;99.90
35531;DHT22;21637;53.352;-6.356;2023-04-29T12:29:28;16.80;99.90
35531;DHT22;21637;53.352;-6.356;2023-04-29T12:31:55;16.80;99.90
35531;DHT22;21637;53.352;-6.356;2023-04-29T12:34:31;17.00;99.90
35531;DHT22;21637;53.352;-6.356;2023-04-29T12:37:01;17.00;99.90
35531;DHT22;21637;53.352;-6.356;2023-04-29T12:39:27;17.10;99.90
35531;DHT22;21637;53.352;-6.356;2023-04-29T12:41:57;17.10;99.90
35531;DHT22;21637;53.352;-6.356;2023-04-29T12:44:24;17.00;99.90
35531;DHT22;21637;53.352;-6.356;2023-04-29T12:46:50;17.10;99.90
35531;DHT22;21637;53.352;-6.356;2023-04-29T12:49:22;17.30;99.90
35531;DHT22;21637;53.352;-6.356;2023-04-29T12:51:48;17.20;99.90
35531;DHT22;21637;53.352;-6.356;2023-04-29T12:54:14;17.30;99.90
35531;DHT22;21637;53.352;-6.356;2023-04-29T12:56:40;17.40;99.90
35531;DHT22;21637;53.352;-6.356;2023-04-29T12:59:08;17.40;99.90
35531;DHT22;21637;53.352;-6.356;2023-04-29T13:01:35;17.40;99.90
35531;DHT22;21637;53.352;-6.356;2023-04-29T13:04:01;17.40;99.90
35531;DHT22;21637;53.352;-6.356;2023-04-29T13:06:26;17.40;99.90
35531;DHT22;21637;53.352;-6.356;2023-04-29T13:08:52;17.20;99.90
35531;DHT22;21637;53.352;-6.356;2023-04-29T13:11:19;17.40;99.90
35531;DHT22;21637;53.352;-6.356;2023-04-29T13:13:45;17.50;99.90
35531;DHT22;21637;53.352;-6.356;2023-04-29T13:16:10;17.60;99.90
35531;DHT22;21637;53.352;-6.356;2023-04-29T13:18:36;17.60;99.90
35531;DHT22;21637;53.352;-6.356;2023-04-29T13:21:02;17.60;99.90
35531;DHT22;21637;53.352;-6.356;2023-04-29T13:23:28;17.70;99.90
35531;DHT22;21637;53.352;-6.356;2023-04-29T13:25:53;17.70;99.90
35531;DHT22;21637;53.352;-6.356;2023-04-29T13:28:19;17.70;99.90
35531;DHT22;21637;53.352;-6.356;2023-04-29T13:30:46;17.70;99.90
35531;DHT22;21637;53.352;-6.356;2023-04-29T13:33:12;17.70;99.90
35531;DHT22;21637;53.352;-6.356;2023-04-29T13:35:39;17.70;99.90
35531;DHT22;21637;53.352;-6.356;2023-04-29T13:38:06;17.70;99.90
35531;DHT22;21637;53.352;-6.356;2023-04-29T13:40:32;17.70;99.90
35531;DHT22;21637;53.352;-6.356;2023-04-29T13:42:58;17.80;99.90
35531;DHT22;21637;53.352;-6.356;2023-04-29T13:45:24;18.00;99.90
35531;DHT22;21637;53.352;-6.356;2023-04-29T13:47:50;18.10;99.90
35531;DHT22;21637;53.352;-6.356;2023-04-29T13:50:15;18.00;99.90
35531;DHT22;21637;53.352;-6.356;2023-04-29T13:52:41;17.90;99.90
35531;DHT22;21637;53.352;-6.356;2023-04-29T13:55:08;18.00;99.90
35531;DHT22;21637;53.352;-6.356;2023-04-29T13:57:34;18.10;99.90
35531;DHT22;21637;53.352;-6.356;2023-04-29T13:59:59;18.20;99.90
35531;DHT22;21637;53.352;-6.356;2023-04-29T14:02:25;18.30;99.90
35531;DHT22;21637;53.352;-6.356;2023-04-29T14:04:52;18.40;99.90
35531;DHT22;21637;53.352;-6.356;2023-04-29T14:07:18;18.50;99.90
35531;DHT22;21637;53.352;-6.356;2023-04-29T14:09:44;18.70;99.90
35531;DHT22;21637;53.352;-6.356;2023-04-29T14:12:10;18.90;99.90
35531;DHT22;21637;53.352;-6.356;2023-04-29T14:14:36;18.90;99.90
35531;DHT22;21637;53.352;-6.356;2023-04-29T14:17:02;18.60;99.90
35531;DHT22;21637;53.352;-6.356;2023-04-29T14:19:28;18.60;99.90
35531;DHT22;21637;53.352;-6.356;2023-04-29T14:21:53;18.50;99.90
35531;DHT22;21637;53.352;-6.356;2023-04-29T14:24:19;18.40;99.90
35531;DHT22;21637;53.352;-6.356;2023-04-29T14:26:45;18.40;99.90
35531;DHT22;21637;53.352;-6.356;2023-04-29T14:29:11;18.30;99.90
35531;DHT22;21637;53.352;-6.356;2023-04-29T14:31:36;18.20;99.90
35531;DHT22;21637;53.352;-6.356;2023-04-29T14:34:03;18.20;99.90
35531;DHT22;21637;53.352;-6.356;2023-04-29T14:36:29;18.10;99.90
35531;DHT22;21637;53.352;-6.356;2023-04-29T14:38:57;18.00;99.90
35531;DHT22;21637;53.352;-6.356;2023-04-29T14:41:23;18.00;99.90
35531;DHT22;21637;53.352;-6.356;2023-04-29T14:43:49;18.00;99.90
35531;DHT22;21637;53.352;-6.356;2023-04-29T14:46:15;17.80;99.90
35531;DHT22;21637;53.352;-6.356;2023-04-29T14:48:41;17.80;99.90
35531;DHT22;21637;53.352;-6.356;2023-04-29T14:51:07;17.80;99.90
35531;DHT22;21637;53.352;-6.356;2023-04-29T14:53:33;17.70;99.90
35531;DHT22;21637;53.352;-6.356;2023-04-29T14:55:59;17.70;99.90
35531;DHT22;21637;53.352;-6.356;2023-04-29T14:58:25;17.60;99.90
35531;DHT22;21637;53.352;-6.356;2023-04-29T15:00:51;17.40;99.90
35531;DHT22;21637;53.352;-6.356;2023-04-29T15:03:17;17.40;99.90
35531;DHT22;21637;53.352;-6.356;2023-04-29T15:05:43;17.30;99.90
35531;DHT22;21637;53.352;-6.356;2023-04-29T15:08:10;17.40;99.90
35531;DHT22;21637;53.352;-6.356;2023-04-29T15:10:35;17.50;99.90
35531;DHT22;21637;53.352;-6.356;2023-04-29T15:13:01;17.60;99.90
35531;DHT22;21637;53.352;-6.356;2023-04-29T15:15:27;17.90;99.90
35531;DHT22;21637;53.352;-6.356;2023-04-29T15:17:53;17.90;99.90
35531;DHT22;21637;53.352;-6.356;2023-04-29T15:20:19;18.00;99.90
35531;DHT22;21637;53.352;-6.356;2023-04-29T15:22:45;18.00;99.90
35531;DHT22;21637;53.352;-6.356;2023-04-29T15:25:11;18.30;99.90
35531;DHT22;21637;53.352;-6.356;2023-04-29T15:27:37;18.50;99.90
35531;DHT22;21637;53.352;-6.356;2023-04-29T15:30:04;18.60;99.90
35531;DHT22;21637;53.352;-6.356;2023-04-29T15:32:30;18.50;99.90
35531;DHT22;21637;53.352;-6.356;2023-04-29T15:35:00;18.80;99.90
35531;DHT22;21637;53.352;-6.356;2023-04-29T15:37:27;18.50;99.90
35531;DHT22;21637;53.352;-6.356;2023-04-29T15:39:53;18.90;99.90
35531;DHT22;21637;53.352;-6.356;2023-04-29T15:42:19;19.10;99.90
35531;DHT22;21637;53.352;-6.356;2023-04-29T15:44:45;19.40;99.90
35531;DHT22;21637;53.352;-6.356;2023-04-29T15:47:11;19.70;99.90
35531;DHT22;21637;53.352;-6.356;2023-04-29T15:49:37;20.00;99.90
35531;DHT22;21637;53.352;-6.356;2023-04-29T15:52:03;20.00;99.90
35531;DHT22;21637;53.352;-6.356;2023-04-29T15:54:29;20.10;99.90